createdAt,value
2024-05-09T00:00:39.977Z,11.95
2024-05-09T00:03:26.650Z,12.70
2024-05-09T00:06:16.246Z,12.68
2024-05-09T00:09:01.375Z,12.35
2024-05-09T00:11:47.091Z,11.98
2024-05-09T00:14:32.483Z,12.40
2024-05-09T00:17:17.943Z,13.10
2024-05-09T00:20:09.069Z,13.00
2024-05-09T00:22:59.126Z,13.43
2024-05-09T00:25:45.459Z,13.93
2024-05-09T00:28:30.716Z,14.48
2024-05-09T00:31:16.433Z,14.55
2024-05-09T00:34:01.840Z,15.93
2024-05-09T00:36:47.466Z,14.48
2024-05-09T00:39:32.592Z,14.23
2024-05-09T00:42:18.040Z,13.63
2024-05-09T00:45:03.618Z,14.35
2024-05-09T00:47:49.517Z,13.43
2024-05-09T00:50:38.172Z,13.57
2024-05-09T00:53:24.749Z,12.90
2024-05-09T00:56:11.957Z,12.75
2024-05-09T00:58:57.338Z,13.45
2024-05-09T01:01:43.439Z,14.88
2024-05-09T01:04:28.926Z,15.10
2024-05-09T01:07:14.602Z,14.25
2024-05-09T01:10:00.035Z,13.65
2024-05-09T01:12:45.549Z,14.77
2024-05-09T01:15:30.903Z,15.38
2024-05-09T01:18:16.461Z,15.70
2024-05-09T01:21:02.191Z,15.85
2024-05-09T01:23:47.869Z,14.90
2024-05-09T01:26:33.323Z,14.63
2024-05-09T01:29:19.006Z,15.07
2024-05-09T01:32:05.086Z,15.68
2024-05-09T01:34:50.587Z,13.20
2024-05-09T01:37:36.057Z,14.13
2024-05-09T01:40:28.656Z,13.18
2024-05-09T01:43:20.798Z,14.07
2024-05-09T01:46:06.127Z,12.98
2024-05-09T01:48:51.610Z,12.43
2024-05-09T01:51:36.701Z,15.65
2024-05-09T01:54:22.382Z,15.55
2024-05-09T01:57:07.998Z,15.07
2024-05-09T01:59:53.603Z,15.88
2024-05-09T02:02:38.900Z,16.52
2024-05-09T02:05:24.591Z,16.27
2024-05-09T02:08:18.659Z,18.50
2024-05-09T02:11:04.736Z,16.55
2024-05-09T02:13:50.235Z,15.25
2024-05-09T02:16:35.724Z,14.10
2024-05-09T02:19:21.013Z,15.10
2024-05-09T02:22:06.755Z,14.82
2024-05-09T02:24:52.028Z,14.63
2024-05-09T02:27:37.919Z,15.68
2024-05-09T02:30:30.703Z,17.50
2024-05-09T02:33:24.045Z,16.75
2024-05-09T02:36:10.407Z,15.20
2024-05-09T02:38:56.007Z,14.60
2024-05-09T02:41:41.529Z,15.52
2024-05-09T02:44:27.064Z,16.15
2024-05-09T02:47:12.892Z,17.35
2024-05-09T02:49:58.545Z,18.33
2024-05-09T02:52:44.388Z,18.20
2024-05-09T02:55:29.948Z,19.55
2024-05-09T02:58:15.407Z,19.60
2024-05-09T03:01:01.249Z,20.52
2024-05-09T03:03:48.513Z,19.23
2024-05-09T03:06:34.107Z,18.70
2024-05-09T03:09:19.414Z,19.60
2024-05-09T03:12:05.192Z,18.40
2024-05-09T03:14:50.914Z,18.20
2024-05-09T03:17:36.908Z,18.23
2024-05-09T03:20:27.596Z,18.45
2024-05-09T03:23:18.340Z,20.00
2024-05-09T03:26:03.738Z,20.73
2024-05-09T03:28:49.518Z,19.75
2024-05-09T03:31:34.709Z,20.73
2024-05-09T03:34:20.501Z,19.45
2024-05-09T03:37:06.018Z,18.67
2024-05-09T03:39:51.366Z,19.80
2024-05-09T03:42:41.786Z,19.38
2024-05-09T03:45:27.016Z,17.95
2024-05-09T03:48:13.220Z,16.45
2024-05-09T03:50:58.739Z,17.58
2024-05-09T03:53:44.159Z,18.23
2024-05-09T03:56:29.730Z,17.40
2024-05-09T03:59:15.452Z,18.50
2024-05-09T04:02:01.042Z,18.05
2024-05-09T04:04:46.501Z,17.77
2024-05-09T04:07:33.367Z,16.80
2024-05-09T04:10:27.688Z,20.02
2024-05-09T04:13:17.931Z,16.50
2024-05-09T04:16:03.767Z,17.52
2024-05-09T04:18:49.710Z,17.60
2024-05-09T04:21:35.085Z,19.52
2024-05-09T04:24:20.398Z,17.88
2024-05-09T04:27:05.873Z,17.73
2024-05-09T04:29:51.447Z,19.30
2024-05-09T04:32:36.616Z,18.52
2024-05-09T04:35:22.583Z,20.08
2024-05-09T04:38:11.423Z,19.17
2024-05-09T04:40:56.844Z,17.88
2024-05-09T04:43:42.495Z,16.83
2024-05-09T04:46:28.071Z,18.10
2024-05-09T04:49:14.339Z,17.25
2024-05-09T04:52:02.667Z,16.55
2024-05-09T04:54:48.217Z,18.30
2024-05-09T04:57:34.042Z,16.92
2024-05-09T05:00:28.130Z,16.00
2024-05-09T05:03:18.254Z,16.40
2024-05-09T05:06:04.364Z,16.42
2024-05-09T05:08:49.823Z,14.65
2024-05-09T05:11:35.484Z,15.45
2024-05-09T05:14:20.850Z,14.65
2024-05-09T05:17:06.371Z,14.55
2024-05-09T05:19:51.928Z,14.07
2024-05-09T05:22:37.461Z,14.45
2024-05-09T05:25:22.629Z,12.98
2024-05-09T05:28:08.731Z,11.73
2024-05-09T05:30:54.490Z,13.13
2024-05-09T05:33:39.824Z,13.32
2024-05-09T05:36:25.264Z,13.73
2024-05-09T05:39:10.855Z,14.57
2024-05-09T05:41:56.567Z,11.85
2024-05-09T05:44:42.201Z,10.40
2024-05-09T05:47:27.932Z,12.38
2024-05-09T05:50:23.770Z,12.20
2024-05-09T05:53:13.467Z,13.20
2024-05-09T05:55:58.876Z,13.02
2024-05-09T05:58:44.420Z,12.52
2024-05-09T06:01:30.064Z,13.88
2024-05-09T06:04:15.773Z,14.40
2024-05-09T06:07:01.036Z,14.27
2024-05-09T06:09:47.602Z,15.40
2024-05-09T06:12:34.504Z,16.55
2024-05-09T06:15:19.838Z,14.27
2024-05-09T06:18:10.195Z,15.85
2024-05-09T06:20:56.941Z,14.47
2024-05-09T06:23:50.044Z,16.35
2024-05-09T06:26:35.759Z,15.23
2024-05-09T06:29:21.452Z,16.42
2024-05-09T06:32:07.147Z,12.38
2024-05-09T06:34:52.740Z,12.05
2024-05-09T06:37:38.479Z,11.20
2024-05-09T06:40:29.254Z,16.50
2024-05-09T06:43:20.134Z,15.02
2024-05-09T06:46:05.535Z,14.43
2024-05-09T06:48:51.521Z,14.80
2024-05-09T06:51:41.258Z,14.60
2024-05-09T06:54:26.878Z,13.95
2024-05-09T06:57:12.001Z,13.63
2024-05-09T07:00:01.360Z,9.73
2024-05-09T07:02:46.874Z,13.68
2024-05-09T07:05:33.401Z,14.30
2024-05-09T07:08:19.565Z,15.15
2024-05-09T07:11:05.136Z,16.65
2024-05-09T07:13:50.366Z,15.50
2024-05-09T07:16:35.993Z,16.40
2024-05-09T07:19:21.554Z,14.40
2024-05-09T07:22:07.135Z,13.25
2024-05-09T07:24:54.202Z,11.00
2024-05-09T07:27:39.833Z,8.55
2024-05-09T07:30:32.829Z,7.32
2024-05-09T07:33:22.469Z,5.00
2024-05-09T07:36:09.506Z,5.82
2024-05-09T07:38:54.970Z,9.75
2024-05-09T07:41:40.822Z,5.38
2024-05-09T07:44:26.279Z,7.57
2024-05-09T07:48:27.578Z,5.85
2024-05-09T07:53:36.368Z,8.13
2024-05-09T07:56:12.642Z,6.15
2024-05-09T07:58:58.202Z,5.72
2024-05-09T08:01:43.740Z,3.53
2024-05-09T08:04:29.426Z,4.85
2024-05-09T08:07:15.340Z,3.90
2024-05-09T08:10:00.911Z,3.88
2024-05-09T08:12:46.149Z,4.60
2024-05-09T08:15:31.559Z,4.75
2024-05-09T08:18:17.160Z,4.40
2024-05-09T08:21:02.610Z,9.15
2024-05-09T08:23:47.799Z,9.65
2024-05-09T08:26:33.194Z,5.60
2024-05-09T08:29:18.661Z,8.30
2024-05-09T08:32:05.920Z,9.75
2024-05-09T08:34:51.332Z,7.10
2024-05-09T08:37:39.891Z,7.28
2024-05-09T08:40:33.417Z,5.97
2024-05-09T08:43:24.422Z,9.43
2024-05-09T08:46:13.121Z,12.27
2024-05-09T08:48:59.745Z,10.68
2024-05-09T08:51:46.814Z,8.15
2024-05-09T08:54:32.229Z,11.20
2024-05-09T08:57:19.137Z,12.88
2024-05-09T09:00:10.107Z,12.82
2024-05-09T09:03:00.294Z,14.82
2024-05-09T09:06:07.822Z,12.07
2024-05-09T09:08:54.782Z,10.32
2024-05-09T09:11:39.939Z,9.98
2024-05-09T09:14:25.491Z,10.55
2024-05-09T09:17:17.165Z,11.30
2024-05-09T09:20:02.962Z,10.90
2024-05-09T09:22:48.293Z,10.73
2024-05-09T09:25:33.604Z,13.63
2024-05-09T09:28:22.756Z,9.50
2024-05-09T09:31:08.010Z,11.02
2024-05-09T09:33:54.027Z,11.80
2024-05-09T09:36:40.143Z,9.98
2024-05-09T09:39:28.628Z,9.30
2024-05-09T09:42:22.772Z,7.10
2024-05-09T09:45:08.339Z,7.93
2024-05-09T09:47:57.240Z,10.27
2024-05-09T09:50:43.400Z,12.07
2024-05-09T09:53:29.353Z,10.23
2024-05-09T09:56:18.081Z,11.02
2024-05-09T09:59:04.694Z,7.78
2024-05-09T10:01:50.345Z,9.77
2024-05-09T10:04:36.706Z,10.25
2024-05-09T10:07:22.784Z,8.50
2024-05-09T10:10:11.003Z,12.00
2024-05-09T10:13:06.365Z,10.70
2024-05-09T10:15:53.971Z,9.35
2024-05-09T10:18:40.767Z,7.15
2024-05-09T10:21:27.094Z,7.32
2024-05-09T10:24:12.864Z,8.50
2024-05-09T10:26:58.515Z,5.90
2024-05-09T10:29:53.785Z,7.80
2024-05-09T10:32:40.701Z,7.45
2024-05-09T10:35:26.912Z,6.82
2024-05-09T10:38:12.583Z,7.10
2024-05-09T10:41:00.022Z,8.98
2024-05-09T10:43:45.641Z,8.05
2024-05-09T10:46:31.296Z,6.25
2024-05-09T10:49:17.091Z,8.30
2024-05-09T10:52:03.855Z,8.90
2024-05-09T10:54:50.176Z,6.90
2024-05-09T10:57:40.738Z,6.60
2024-05-09T11:00:36.120Z,6.30
2024-05-09T11:03:26.088Z,7.65
2024-05-09T11:06:11.618Z,7.90
2024-05-09T11:08:57.630Z,8.45
2024-05-09T11:11:43.244Z,8.55
2024-05-09T11:14:28.459Z,7.72
2024-05-09T11:17:13.845Z,8.35
2024-05-09T11:20:00.412Z,7.72
2024-05-09T11:22:45.910Z,8.57
2024-05-09T11:25:33.229Z,8.50
2024-05-09T11:28:20.168Z,9.02
2024-05-09T11:31:07.907Z,8.45
2024-05-09T11:33:54.766Z,10.25
2024-05-09T11:36:40.408Z,8.25
2024-05-09T11:39:27.476Z,8.50
2024-05-09T11:42:13.075Z,9.60
2024-05-09T11:44:58.530Z,6.38
2024-05-09T11:47:44.332Z,8.40
2024-05-09T11:50:32.987Z,7.63
2024-05-09T11:53:20.707Z,6.20
2024-05-09T11:56:06.418Z,8.10
2024-05-09T11:58:52.283Z,12.35
2024-05-09T12:01:37.689Z,12.43
2024-05-09T12:04:23.336Z,11.27
2024-05-09T12:07:12.747Z,12.75
2024-05-09T12:09:59.808Z,13.48
2024-05-09T12:12:45.527Z,11.57
2024-05-09T12:15:31.086Z,12.73
2024-05-09T12:18:16.727Z,14.48
2024-05-09T12:21:02.769Z,16.05
2024-05-09T12:23:48.332Z,12.32
2024-05-09T12:26:33.514Z,10.75
2024-05-09T12:29:18.949Z,10.27
2024-05-09T12:32:04.870Z,13.35
2024-05-09T12:34:50.506Z,17.13
2024-05-09T12:37:36.130Z,15.93
2024-05-09T12:40:30.702Z,18.95
2024-05-09T12:43:20.569Z,15.93
2024-05-09T12:46:06.220Z,14.57
2024-05-09T12:48:52.090Z,13.35
2024-05-09T12:51:38.348Z,15.25
2024-05-09T12:54:23.738Z,16.30
2024-05-09T12:57:09.720Z,14.85
2024-05-09T12:59:56.019Z,15.35
2024-05-09T13:02:41.714Z,15.02
2024-05-09T13:05:27.156Z,14.80
2024-05-09T13:08:13.559Z,14.88
2024-05-09T13:10:59.248Z,15.35
2024-05-09T13:13:44.868Z,14.60
2024-05-09T13:16:31.577Z,15.98
2024-05-09T13:19:17.395Z,15.30
2024-05-09T13:22:02.979Z,17.67
2024-05-09T13:24:48.343Z,19.70
2024-05-09T13:27:34.667Z,18.73
2024-05-09T13:30:26.570Z,18.60
2024-05-09T13:33:20.994Z,18.45
2024-05-09T13:36:07.178Z,16.73
2024-05-09T13:38:52.639Z,16.30
2024-05-09T13:41:38.110Z,16.83
2024-05-09T13:44:23.600Z,14.20
2024-05-09T13:47:09.361Z,17.17
2024-05-09T13:49:54.779Z,14.32
2024-05-09T13:52:40.466Z,14.32
2024-05-09T13:55:26.241Z,13.57
2024-05-09T13:58:11.910Z,12.60
2024-05-09T14:00:57.192Z,14.88
2024-05-09T14:03:42.830Z,11.57
2024-05-09T14:06:28.373Z,12.57
2024-05-09T14:09:13.948Z,11.95
2024-05-09T14:11:59.672Z,11.40
2024-05-09T14:14:45.343Z,12.40
2024-05-09T14:17:31.020Z,11.05
2024-05-09T14:20:23.886Z,10.27
2024-05-09T14:23:18.155Z,11.75
2024-05-09T14:26:03.367Z,10.70
2024-05-09T14:28:48.687Z,10.80
2024-05-09T14:31:35.536Z,13.65
2024-05-09T14:34:22.896Z,13.73
2024-05-09T14:37:08.548Z,12.55
2024-05-09T14:39:54.072Z,11.27
2024-05-09T14:42:39.965Z,11.60
2024-05-09T14:45:25.296Z,12.38
2024-05-09T14:48:12.142Z,12.15
2024-05-09T14:50:57.472Z,12.55
2024-05-09T14:53:43.277Z,11.23
2024-05-09T14:56:29.250Z,10.88
2024-05-09T14:59:14.472Z,10.85
2024-05-09T15:02:00.295Z,10.45
2024-05-09T15:04:45.836Z,9.95
2024-05-09T15:07:31.323Z,11.73
2024-05-09T15:10:26.225Z,10.00
2024-05-09T15:13:17.528Z,9.80
2024-05-09T15:16:02.978Z,10.98
2024-05-09T15:18:48.472Z,12.43
2024-05-09T15:21:33.966Z,10.43
2024-05-09T15:24:19.469Z,11.52
2024-05-09T15:27:04.776Z,10.07
2024-05-09T15:29:50.046Z,10.10
2024-05-09T15:32:35.742Z,11.65
2024-05-09T15:35:21.520Z,9.65
2024-05-09T15:38:06.741Z,10.88
2024-05-09T15:40:52.768Z,11.38
2024-05-09T15:43:38.406Z,10.80
2024-05-09T15:46:24.134Z,10.07
2024-05-09T15:49:10.033Z,9.00
2024-05-09T15:51:55.479Z,11.38
2024-05-09T15:54:40.764Z,12.40
2024-05-09T15:57:26.317Z,12.45
2024-05-09T16:00:21.863Z,10.38
2024-05-09T16:03:15.099Z,11.52
2024-05-09T16:06:01.346Z,9.77
2024-05-09T16:08:46.706Z,10.77
2024-05-09T16:11:32.339Z,9.27
2024-05-09T16:14:19.018Z,10.50
2024-05-09T16:17:05.168Z,11.23
2024-05-09T16:19:50.438Z,11.50
2024-05-09T16:22:35.463Z,11.63
2024-05-09T16:25:20.856Z,9.73
2024-05-09T16:28:09.729Z,11.00
2024-05-09T16:30:56.124Z,11.38
2024-05-09T16:33:41.894Z,10.43
2024-05-09T16:36:27.289Z,10.52
2024-05-09T16:39:12.708Z,9.80
2024-05-09T16:41:57.894Z,11.55
2024-05-09T16:44:43.488Z,10.80
2024-05-09T16:47:29.547Z,10.93
2024-05-09T16:50:19.089Z,11.57
2024-05-09T16:53:08.662Z,12.23
2024-05-09T16:55:54.806Z,10.85
2024-05-09T16:58:40.459Z,11.40
2024-05-09T17:01:26.291Z,11.80
2024-05-09T17:04:11.744Z,10.80
2024-05-09T17:06:57.271Z,8.20
2024-05-09T17:09:42.592Z,12.43
2024-05-09T17:12:27.900Z,11.13
2024-05-09T17:15:13.871Z,12.18
2024-05-09T17:17:59.653Z,10.80
2024-05-09T17:20:45.066Z,9.68
2024-05-09T17:23:31.854Z,9.10
2024-05-09T17:26:18.819Z,9.55
2024-05-09T17:29:05.381Z,8.73
2024-05-09T17:31:51.589Z,9.05
2024-05-09T17:34:37.425Z,7.93
2024-05-09T17:37:22.961Z,8.40
2024-05-09T17:40:16.614Z,9.18
2024-05-09T17:43:03.392Z,9.25
2024-05-09T17:45:49.104Z,7.88
2024-05-09T17:48:35.031Z,7.05
2024-05-09T17:51:20.594Z,7.65
2024-05-09T17:54:06.144Z,7.35
2024-05-09T17:56:51.766Z,7.07
2024-05-09T17:59:37.065Z,6.72
2024-05-09T18:02:22.807Z,6.95
2024-05-09T18:05:08.989Z,6.03
2024-05-09T18:07:54.871Z,6.40
2024-05-09T18:10:41.383Z,5.93
2024-05-09T18:13:27.445Z,5.90
2024-05-09T18:16:13.634Z,5.32
2024-05-09T18:18:59.058Z,5.25
2024-05-09T18:21:44.616Z,6.53
2024-05-09T18:24:30.058Z,6.32
2024-05-09T18:27:15.842Z,7.82
2024-05-09T18:30:01.206Z,7.05
2024-05-09T18:32:46.800Z,6.82
2024-05-09T18:35:32.365Z,5.97
2024-05-09T18:38:19.042Z,6.07
2024-05-09T18:41:05.097Z,6.72
2024-05-09T18:43:51.045Z,6.55
2024-05-09T18:46:36.476Z,6.55
2024-05-09T18:49:22.004Z,5.93
2024-05-09T18:52:07.491Z,7.05
2024-05-09T18:54:52.862Z,6.60
2024-05-09T18:57:38.316Z,6.90
2024-05-09T19:00:33.231Z,6.63
2024-05-09T19:03:22.620Z,6.65
2024-05-09T19:06:09.564Z,7.22
2024-05-09T19:08:54.953Z,6.82
2024-05-09T19:11:40.920Z,6.25
2024-05-09T19:14:26.143Z,6.72
2024-05-09T19:17:11.801Z,8.10
2024-05-09T19:19:57.513Z,7.97
2024-05-09T19:22:50.803Z,8.73
2024-05-09T19:25:36.680Z,6.75
2024-05-09T19:28:22.236Z,6.85
2024-05-09T19:31:13.970Z,7.80
2024-05-09T19:33:59.141Z,7.53
2024-05-09T19:36:44.881Z,7.57
2024-05-09T19:39:30.086Z,6.82
2024-05-09T19:42:15.666Z,5.20
2024-05-09T19:45:01.198Z,7.80
2024-05-09T19:47:47.165Z,6.72
2024-05-09T19:50:41.683Z,6.93
2024-05-09T19:53:29.612Z,7.05
2024-05-09T19:56:15.303Z,6.90
2024-05-09T19:59:00.998Z,6.90
2024-05-09T20:01:56.238Z,6.47
2024-05-09T20:04:45.712Z,5.80
2024-05-09T20:07:33.224Z,7.20
2024-05-09T20:10:23.915Z,7.75
2024-05-09T20:13:15.048Z,9.18
2024-05-09T20:16:01.488Z,7.38
2024-05-09T20:18:47.202Z,8.82
2024-05-09T20:21:32.625Z,8.98
2024-05-09T20:24:18.201Z,7.90
2024-05-09T20:27:03.877Z,7.70
2024-05-09T20:29:49.536Z,9.43
2024-05-09T20:32:35.045Z,9.23
2024-05-09T20:35:20.813Z,9.10
2024-05-09T20:38:06.219Z,9.65
2024-05-09T20:40:51.895Z,8.60
2024-05-09T20:43:37.062Z,8.80
2024-05-09T20:46:22.669Z,9.02
2024-05-09T20:49:08.599Z,11.32
2024-05-09T20:51:54.115Z,10.70
2024-05-09T20:54:39.563Z,10.13
2024-05-09T20:57:25.189Z,9.32
2024-05-09T21:00:15.383Z,12.50
2024-05-09T21:03:04.855Z,11.68
2024-05-09T21:05:50.716Z,11.50
2024-05-09T21:08:36.440Z,10.02
2024-05-09T21:11:23.071Z,11.20
2024-05-09T21:14:08.652Z,12.55
2024-05-09T21:16:54.226Z,13.63
2024-05-09T21:19:39.432Z,10.93
2024-05-09T21:22:25.262Z,12.30
2024-05-09T21:25:11.008Z,13.95
2024-05-09T21:27:56.557Z,11.65
2024-05-09T21:30:43.215Z,13.13
2024-05-09T21:33:28.927Z,13.52
2024-05-09T21:36:14.376Z,12.38
2024-05-09T21:38:59.428Z,13.05
2024-05-09T21:41:45.228Z,13.25
2024-05-09T21:44:30.585Z,12.70
2024-05-09T21:47:16.057Z,12.48
2024-05-09T21:50:01.694Z,12.75
2024-05-09T21:52:47.007Z,11.70
2024-05-09T21:55:32.178Z,13.73
2024-05-09T21:58:26.580Z,13.40
2024-05-09T22:01:13.573Z,13.75
2024-05-09T22:03:59.205Z,14.57
2024-05-09T22:06:44.612Z,13.40
2024-05-09T22:09:29.726Z,15.45
2024-05-09T22:12:14.999Z,14.18
2024-05-09T22:15:00.345Z,13.55
2024-05-09T22:17:46.156Z,11.85
2024-05-09T22:20:37.149Z,10.13
2024-05-09T22:23:24.526Z,12.68
2024-05-09T22:26:09.857Z,11.35
2024-05-09T22:28:55.497Z,11.25
2024-05-09T22:31:40.992Z,11.00
2024-05-09T22:34:26.713Z,11.10
2024-05-09T22:37:12.506Z,12.93
2024-05-09T22:39:58.000Z,11.77
2024-05-09T22:42:43.589Z,13.90
2024-05-09T22:45:29.145Z,10.27
2024-05-09T22:48:14.952Z,10.90
2024-05-09T22:51:00.823Z,11.73
2024-05-09T22:53:45.871Z,12.10
2024-05-09T22:56:31.475Z,12.27
2024-05-09T22:59:18.086Z,10.32
2024-05-09T23:02:03.958Z,11.35
2024-05-09T23:04:49.543Z,12.52
2024-05-09T23:07:34.775Z,11.82
2024-05-09T23:10:27.492Z,12.15
2024-05-09T23:13:17.848Z,14.18
2024-05-09T23:16:03.523Z,12.20
2024-05-09T23:18:48.966Z,12.95
2024-05-09T23:21:38.672Z,13.18
2024-05-09T23:24:24.016Z,13.20
2024-05-09T23:27:09.777Z,14.10
2024-05-09T23:29:55.268Z,12.20
2024-05-09T23:32:40.661Z,13.80
2024-05-09T23:35:26.602Z,13.45
2024-05-09T23:38:12.498Z,13.52
2024-05-09T23:40:58.349Z,16.08
2024-05-09T23:43:43.614Z,16.73
2024-05-09T23:46:29.450Z,16.67
2024-05-09T23:49:15.025Z,15.75
2024-05-09T23:52:00.539Z,17.17
2024-05-09T23:54:46.849Z,16.17
2024-05-09T23:57:32.588Z,16.30
